Fairview, Texas
Current Conditions -  °F | °C
As of 10:12 AM on Sunday 21 Dec 2014 (Local Time) from KTKI Reporting Station
Overcast Overcast  
Wind Chill: 41°   Ceiling: 1400
Heat Index: 47°   Visibility: 7mi
Dew Point: 44°   Wind: 13mph
Humidity: 90%   Direction: 150°SSE
Pressure: 30.09"   Gusts: NA
Location:  33.202°N, 96.6182°W
Report Text: KTKI 211612Z 15011KT 7SM SCT009 BKN014 OVC024 08/07 A3009 RMK AO2 T00830067
Loading
Personal Weather Stations






























Interactive Weather Map New forecast layout! Learn more

10-Day Weather Forecast

Advertisements
Track Severe Weather on mobile